createdAt,value
2022-09-14T00:04:12.120Z,57.26
2022-09-14T00:08:10.194Z,56.86
2022-09-14T00:12:07.388Z,56.85
2022-09-14T00:16:14.301Z,56.80
2022-09-14T00:20:11.920Z,56.33
2022-09-14T00:24:11.399Z,56.87
2022-09-14T00:28:08.370Z,56.20
2022-09-14T00:32:05.437Z,56.32
2022-09-14T00:36:11.523Z,56.22
2022-09-14T00:40:11.111Z,55.94
2022-09-14T00:44:28.363Z,55.96
2022-09-14T00:48:27.621Z,55.57
2022-09-14T00:52:31.256Z,55.86
2022-09-14T00:56:28.651Z,56.38
2022-09-14T01:00:29.626Z,56.72
2022-09-14T01:04:26.898Z,57.61
2022-09-14T01:08:41.860Z,57.47
2022-09-14T01:13:26.062Z,58.73
2022-09-14T01:17:35.314Z,58.61
2022-09-14T01:21:38.357Z,58.81
2022-09-14T01:26:08.667Z,58.93
2022-09-14T01:30:15.718Z,58.65
2022-09-14T01:34:24.727Z,59.58
2022-09-14T01:38:37.960Z,61.02
2022-09-14T01:42:37.654Z,60.99
2022-09-14T01:46:48.697Z,61.97
2022-09-14T01:50:50.839Z,59.67
2022-09-14T01:55:18.347Z,58.88
2022-09-14T01:59:22.250Z,58.73
2022-09-14T02:03:29.841Z,58.47
2022-09-14T02:07:27.531Z,59.05
2022-09-14T02:11:24.594Z,59.42
2022-09-14T02:15:23.091Z,60.04
2022-09-14T02:19:23.836Z,60.02
2022-09-14T02:23:23.274Z,60.28
2022-09-14T02:27:20.486Z,60.69
2022-09-14T02:32:13.225Z,60.84
2022-09-14T02:36:35.376Z,60.68
2022-09-14T02:40:57.053Z,60.11
2022-09-14T02:45:07.110Z,59.74
2022-09-14T02:49:17.472Z,60.06
2022-09-14T02:53:25.475Z,59.51
2022-09-14T02:57:22.476Z,59.49
2022-09-14T03:01:23.001Z,59.51
2022-09-14T03:05:20.770Z,58.88
2022-09-14T03:09:17.778Z,58.85
2022-09-14T03:13:14.712Z,59.90
2022-09-14T03:17:11.689Z,61.14
2022-09-14T03:21:16.149Z,62.85
2022-09-14T03:25:14.150Z,62.92
2022-09-14T03:29:11.114Z,63.53
2022-09-14T03:33:08.645Z,64.09
2022-09-14T03:37:06.464Z,63.04
2022-09-14T03:41:09.844Z,61.07
2022-09-14T03:45:07.511Z,62.89
2022-09-14T03:49:04.502Z,60.74
2022-09-14T03:53:01.428Z,60.64
2022-09-14T03:56:58.422Z,59.33
2022-09-14T04:00:55.370Z,59.31
2022-09-14T04:04:52.409Z,60.06
2022-09-14T04:08:49.455Z,59.67
2022-09-14T04:12:46.451Z,59.69
2022-09-14T04:16:44.756Z,60.57
2022-09-14T04:20:41.824Z,60.07
2022-09-14T04:24:38.791Z,60.37
2022-09-14T04:28:35.866Z,60.10
2022-09-14T04:32:34.483Z,62.39
2022-09-14T04:36:32.072Z,62.71
2022-09-14T04:40:29.166Z,63.29
2022-09-14T04:44:26.143Z,64.18
2022-09-14T04:48:23.249Z,63.79
2022-09-14T04:52:20.292Z,63.38
2022-09-14T04:56:19.885Z,63.79
2022-09-14T05:00:17.217Z,63.46
2022-09-14T05:04:14.246Z,63.70
2022-09-14T05:08:11.271Z,64.34
2022-09-14T05:12:08.294Z,63.91
2022-09-14T05:16:16.363Z,63.88
2022-09-14T05:20:13.456Z,63.31
2022-09-14T05:24:19.314Z,63.41
2022-09-14T05:28:16.266Z,62.95
2022-09-14T05:32:13.212Z,63.23
2022-09-14T05:36:10.689Z,63.43
2022-09-14T05:40:09.086Z,63.75
2022-09-14T05:44:06.830Z,63.62
2022-09-14T05:48:04.967Z,63.26
2022-09-14T05:52:02.179Z,62.74
2022-09-14T05:56:08.284Z,62.87
2022-09-14T06:00:06.012Z,62.85
2022-09-14T06:04:11.430Z,62.97
2022-09-14T06:08:08.451Z,64.18
2022-09-14T06:12:05.562Z,64.88
2022-09-14T06:16:09.605Z,64.53
2022-09-14T06:20:08.091Z,63.53
2022-09-14T06:24:05.106Z,64.88
2022-09-14T06:28:02.251Z,63.50
2022-09-14T06:31:59.272Z,63.76
2022-09-14T06:36:04.950Z,63.09
2022-09-14T06:40:02.409Z,62.72
2022-09-14T06:44:01.868Z,62.92
2022-09-14T06:47:59.106Z,63.43
2022-09-14T06:51:57.576Z,64.54
2022-09-14T06:55:59.567Z,63.22
2022-09-14T06:59:56.703Z,64.44
2022-09-14T07:03:54.732Z,66.53
2022-09-14T07:07:53.252Z,67.81
2022-09-14T07:11:50.264Z,67.36
2022-09-14T07:15:50.870Z,67.20
2022-09-14T07:19:47.847Z,68.18
2022-09-14T07:23:47.133Z,66.80
2022-09-14T07:27:44.126Z,70.05
2022-09-14T07:31:54.371Z,66.39
2022-09-14T07:35:53.079Z,64.98
2022-09-14T07:39:50.053Z,65.52
2022-09-14T07:43:57.003Z,65.80
2022-09-14T07:47:54.140Z,65.28
2022-09-14T07:51:53.517Z,65.88
2022-09-14T07:55:50.977Z,66.19
2022-09-14T07:59:48.220Z,64.72
2022-09-14T08:03:48.342Z,64.23
2022-09-14T08:07:45.250Z,64.49
2022-09-14T08:11:42.305Z,65.09
2022-09-14T08:15:39.809Z,65.23
2022-09-14T08:19:38.281Z,65.71
2022-09-14T08:23:36.747Z,65.99
2022-09-14T08:27:34.109Z,64.51
2022-09-14T08:31:35.616Z,63.23
2022-09-14T08:35:56.647Z,62.86
2022-09-14T08:39:51.625Z,61.26
2022-09-14T08:43:48.974Z,62.81
2022-09-14T08:47:46.127Z,63.57
2022-09-14T08:51:43.211Z,63.22
2022-09-14T08:55:53.039Z,63.77
2022-09-14T09:00:00.613Z,63.58
2022-09-14T09:04:45.521Z,62.80
2022-09-14T09:09:05.118Z,62.14
2022-09-14T09:13:06.960Z,62.26
2022-09-14T09:17:16.355Z,62.22
2022-09-14T09:21:19.309Z,62.40
2022-09-14T09:25:25.423Z,62.23
2022-09-14T09:29:22.534Z,62.57
2022-09-14T09:33:38.261Z,63.42
2022-09-14T09:37:43.884Z,63.83
2022-09-14T09:41:47.982Z,64.89
2022-09-14T09:46:07.325Z,64.92
2022-09-14T09:50:18.757Z,65.05
2022-09-14T09:54:15.701Z,64.89
2022-09-14T09:58:36.756Z,64.26
2022-09-14T10:02:33.796Z,63.66
2022-09-14T10:06:31.798Z,64.37
2022-09-14T10:10:34.914Z,63.95
2022-09-14T10:14:38.113Z,63.60
2022-09-14T10:18:35.678Z,63.21
2022-09-14T10:22:36.314Z,63.02
2022-09-14T10:26:37.639Z,63.59
2022-09-14T10:30:52.378Z,63.58
2022-09-14T10:34:51.262Z,63.95
2022-09-14T10:39:10.743Z,62.97
2022-09-14T10:43:28.690Z,62.61
2022-09-14T10:47:41.825Z,62.57
2022-09-14T10:51:54.271Z,63.21
2022-09-14T10:56:13.583Z,62.35
2022-09-14T11:00:20.710Z,61.88
2022-09-14T11:04:31.696Z,61.90
2022-09-14T11:09:16.164Z,62.22
2022-09-14T11:13:48.351Z,62.89
2022-09-14T11:18:34.688Z,62.51
2022-09-14T11:23:28.613Z,62.33
2022-09-14T11:27:48.687Z,63.28
2022-09-14T11:32:27.512Z,62.20
2022-09-14T11:36:50.602Z,61.31
2022-09-14T11:40:57.655Z,62.10
2022-09-14T11:45:06.098Z,61.42
2022-09-14T11:49:39.883Z,61.04
2022-09-14T11:53:37.423Z,60.55
2022-09-14T11:57:34.890Z,59.96
2022-09-14T12:01:33.443Z,58.74
2022-09-14T12:05:34.256Z,56.27
2022-09-14T12:09:39.162Z,54.39
2022-09-14T12:13:39.876Z,51.77
2022-09-14T12:17:40.182Z,48.86
2022-09-14T12:21:38.028Z,47.55
2022-09-14T12:25:38.978Z,47.57
2022-09-14T12:29:35.991Z,47.90
2022-09-14T12:33:33.021Z,48.27
2022-09-14T12:37:32.466Z,49.46
2022-09-14T12:41:35.365Z,48.89
2022-09-14T12:45:50.941Z,49.11
2022-09-14T12:49:48.678Z,50.41
2022-09-14T12:53:56.963Z,50.73
2022-09-14T12:58:16.344Z,51.00
2022-09-14T13:02:55.271Z,53.10
2022-09-14T13:06:54.850Z,54.25
2022-09-14T13:10:52.911Z,54.00
2022-09-14T13:14:55.855Z,53.18
2022-09-14T13:19:02.762Z,52.40
2022-09-14T13:23:00.249Z,49.74
2022-09-14T13:27:01.853Z,48.55
2022-09-14T13:31:02.030Z,44.71
2022-09-14T13:34:59.158Z,44.33
2022-09-14T13:39:01.618Z,44.59
2022-09-14T13:43:00.436Z,42.44
2022-09-14T13:47:01.804Z,41.48
2022-09-14T13:50:58.755Z,41.71
2022-09-14T13:55:20.502Z,42.52
2022-09-14T13:59:22.584Z,42.70
2022-09-14T14:03:49.095Z,43.59
2022-09-14T14:07:46.639Z,42.39
2022-09-14T14:11:53.702Z,43.56
2022-09-14T14:15:52.282Z,42.95
2022-09-14T14:19:52.504Z,43.40
2022-09-14T14:24:12.089Z,45.68
2022-09-14T14:28:28.955Z,47.61
2022-09-14T14:32:26.319Z,47.89
2022-09-14T14:36:23.305Z,47.64
2022-09-14T14:40:20.784Z,48.63
2022-09-14T14:44:26.246Z,48.87
2022-09-14T14:48:23.688Z,50.79
2022-09-14T14:52:20.622Z,51.60
2022-09-14T14:56:17.625Z,52.04
2022-09-14T15:00:19.473Z,52.64
2022-09-14T15:04:16.471Z,53.95
2022-09-14T15:08:17.128Z,55.27
2022-09-14T15:12:14.102Z,56.92
2022-09-14T15:16:11.164Z,57.11
2022-09-14T15:20:09.175Z,57.57
2022-09-14T15:24:07.031Z,59.25
2022-09-14T15:28:03.983Z,59.10
2022-09-14T15:32:01.224Z,59.24
2022-09-14T15:35:58.680Z,60.34
2022-09-14T15:39:57.945Z,60.46
2022-09-14T15:43:54.913Z,61.39
2022-09-14T15:47:51.883Z,61.80
2022-09-14T15:51:52.250Z,60.53
2022-09-14T15:55:49.189Z,61.79
2022-09-14T15:59:46.357Z,60.61
2022-09-14T16:03:43.838Z,61.34
2022-09-14T16:07:40.845Z,60.68
2022-09-14T16:11:39.085Z,59.95
2022-09-14T16:15:36.013Z,58.85
2022-09-14T16:19:33.152Z,59.15
2022-09-14T16:23:30.232Z,58.38
2022-09-14T16:27:27.413Z,58.47
2022-09-14T16:31:29.997Z,58.38
2022-09-14T16:35:27.027Z,58.46
2022-09-14T16:39:29.494Z,58.45
2022-09-14T16:43:26.683Z,59.00
2022-09-14T16:47:25.736Z,59.22
2022-09-14T16:51:25.778Z,58.72
2022-09-14T16:55:22.735Z,59.53
2022-09-14T16:59:20.753Z,59.79
2022-09-14T17:03:17.830Z,58.65
2022-09-14T17:07:15.387Z,58.63
2022-09-14T17:11:14.783Z,58.99
2022-09-14T17:15:12.357Z,59.35
2022-09-14T17:19:11.704Z,60.14
2022-09-14T17:23:08.789Z,60.70
2022-09-14T17:27:05.812Z,60.03
2022-09-14T17:31:06.306Z,59.42
2022-09-14T17:35:03.801Z,59.71
2022-09-14T17:39:05.821Z,59.16
2022-09-14T17:43:08.075Z,59.59
2022-09-14T17:47:05.488Z,60.40
2022-09-14T17:51:09.003Z,60.23
2022-09-14T17:55:06.556Z,60.47
2022-09-14T17:59:22.446Z,60.41
2022-09-14T18:03:19.936Z,60.66
2022-09-14T18:07:17.012Z,60.41
2022-09-14T18:11:17.504Z,60.60
2022-09-14T18:15:17.111Z,59.52
2022-09-14T18:19:15.555Z,58.68
2022-09-14T18:23:12.511Z,59.53
2022-09-14T18:27:09.667Z,59.61
2022-09-14T18:31:11.288Z,59.87
2022-09-14T18:35:08.912Z,59.79
2022-09-14T18:39:05.946Z,60.45
2022-09-14T18:43:03.743Z,60.68
2022-09-14T18:47:00.827Z,60.87
2022-09-14T18:51:04.884Z,60.02
2022-09-14T18:55:02.036Z,59.23
2022-09-14T18:59:02.212Z,59.29
2022-09-14T19:02:59.249Z,59.44
2022-09-14T19:06:56.222Z,59.04
2022-09-14T19:10:53.167Z,58.69
2022-09-14T19:14:50.120Z,58.65
2022-09-14T19:18:49.929Z,57.87
2022-09-14T19:22:46.901Z,57.23
2022-09-14T19:26:51.714Z,57.51
2022-09-14T19:30:50.150Z,57.41
2022-09-14T19:34:47.271Z,57.41
2022-09-14T19:38:45.509Z,57.19
2022-09-14T19:42:42.581Z,56.63
2022-09-14T19:46:40.704Z,56.63
2022-09-14T19:50:37.734Z,56.10
2022-09-14T19:54:35.078Z,55.58
2022-09-14T19:58:40.796Z,56.25
2022-09-14T20:02:37.853Z,56.36
2022-09-14T20:06:42.787Z,57.71
2022-09-14T20:10:39.926Z,59.01
2022-09-14T20:14:36.856Z,57.66
2022-09-14T20:18:34.103Z,57.68
2022-09-14T20:22:31.392Z,57.71
2022-09-14T20:26:30.135Z,57.78
2022-09-14T20:30:27.271Z,57.63
2022-09-14T20:34:25.016Z,57.84
2022-09-14T20:38:21.964Z,57.60
2022-09-14T20:42:19.048Z,57.99
2022-09-14T20:46:22.430Z,57.89
2022-09-14T20:50:19.425Z,59.64
2022-09-14T20:54:18.086Z,59.97
2022-09-14T20:58:15.068Z,59.42
2022-09-14T21:02:12.299Z,59.16
2022-09-14T21:06:14.266Z,58.83
2022-09-14T21:10:11.382Z,60.35
2022-09-14T21:14:08.802Z,59.23
2022-09-14T21:18:05.774Z,60.12
2022-09-14T21:22:02.870Z,59.72
2022-09-14T21:26:01.085Z,59.82
2022-09-14T21:29:58.406Z,60.01
2022-09-14T21:34:04.211Z,59.03
2022-09-14T21:38:01.477Z,59.46
2022-09-14T21:41:59.670Z,59.34
2022-09-14T21:45:59.811Z,59.88
2022-09-14T21:49:56.791Z,59.71
2022-09-14T21:53:57.684Z,59.52
2022-09-14T21:57:54.649Z,59.12
2022-09-14T22:01:52.214Z,59.20
2022-09-14T22:05:56.783Z,59.21
2022-09-14T22:09:53.841Z,59.99
2022-09-14T22:14:13.996Z,60.91
2022-09-14T22:18:10.965Z,60.09
2022-09-14T22:22:08.436Z,60.83
2022-09-14T22:26:10.846Z,61.90
2022-09-14T22:30:10.402Z,61.28
2022-09-14T22:34:08.749Z,61.07
2022-09-14T22:38:08.438Z,60.90
2022-09-14T22:42:05.896Z,61.71
2022-09-14T22:46:04.118Z,62.74
2022-09-14T22:50:01.104Z,62.34
2022-09-14T22:53:58.040Z,62.73
2022-09-14T22:57:54.982Z,61.97
2022-09-14T23:01:52.072Z,62.49
2022-09-14T23:05:59.089Z,62.22
2022-09-14T23:09:56.138Z,62.01
2022-09-14T23:13:54.102Z,60.71
2022-09-14T23:17:52.310Z,61.84
2022-09-14T23:21:51.368Z,61.81
2022-09-14T23:25:48.771Z,60.67
2022-09-14T23:29:45.696Z,61.68
2022-09-14T23:33:42.636Z,61.53
2022-09-14T23:37:39.585Z,61.63
2022-09-14T23:41:36.515Z,60.91
2022-09-14T23:45:34.577Z,61.51
2022-09-14T23:49:31.758Z,60.14
2022-09-14T23:53:29.118Z,60.22
2022-09-14T23:57:26.082Z,60.15
